createdAt,value
2022-10-01T00:03:02.006Z,67.42
2022-10-01T00:08:03.415Z,67.58
2022-10-01T00:13:04.871Z,67.60
2022-10-01T00:18:06.439Z,67.65
2022-10-01T00:23:07.874Z,67.72
2022-10-01T00:28:09.580Z,67.50
2022-10-01T00:33:11.017Z,67.14
2022-10-01T00:38:15.216Z,67.29
2022-10-01T00:43:28.680Z,67.51
2022-10-01T00:48:34.768Z,67.57
2022-10-01T00:53:37.770Z,67.75
2022-10-01T00:58:39.634Z,67.88
2022-10-01T01:03:41.034Z,68.22
2022-10-01T01:08:43.223Z,68.28
2022-10-01T01:14:01.857Z,68.53
2022-10-01T01:19:14.797Z,68.38
2022-10-01T01:24:47.711Z,68.22
2022-10-01T01:30:04.150Z,67.75
2022-10-01T01:35:08.987Z,67.88
2022-10-01T01:40:12.396Z,67.98
2022-10-01T01:45:21.013Z,68.25
2022-10-01T01:50:25.521Z,68.10
2022-10-01T01:55:29.920Z,68.40
2022-10-01T02:00:31.295Z,68.19
2022-10-01T02:05:43.436Z,68.01
2022-10-01T02:11:06.542Z,68.34
2022-10-01T02:16:21.017Z,68.00
2022-10-01T02:21:40.064Z,68.06
2022-10-01T02:26:45.677Z,67.75
2022-10-01T02:31:49.232Z,68.27
2022-10-01T02:36:52.644Z,68.39
2022-10-01T02:41:56.394Z,68.39
2022-10-01T02:47:07.773Z,68.06
2022-10-01T02:52:23.571Z,68.46
2022-10-01T02:57:29.519Z,68.74
2022-10-01T03:02:31.746Z,68.25
2022-10-01T03:07:35.587Z,68.07
2022-10-01T03:12:37.552Z,68.26
2022-10-01T03:17:39.049Z,68.36
2022-10-01T03:22:40.407Z,68.67
2022-10-01T03:27:42.534Z,68.97
2022-10-01T03:32:43.930Z,69.00
2022-10-01T03:37:47.578Z,69.30
2022-10-01T03:42:50.052Z,70.61
2022-10-01T03:47:52.538Z,71.15
2022-10-01T03:52:53.885Z,71.27
2022-10-01T03:57:55.260Z,71.62
2022-10-01T04:02:56.680Z,71.66
2022-10-01T04:07:59.616Z,72.12
2022-10-01T04:13:01.246Z,72.52
2022-10-01T04:18:06.146Z,72.81
2022-10-01T04:23:07.518Z,72.92
2022-10-01T04:28:11.543Z,72.80
2022-10-01T04:33:15.890Z,73.64
2022-10-01T04:38:17.343Z,73.54
2022-10-01T04:43:18.750Z,74.33
2022-10-01T04:48:20.322Z,74.46
2022-10-01T04:53:21.766Z,74.71
2022-10-01T04:58:23.185Z,75.11
2022-10-01T05:03:24.608Z,75.31
2022-10-01T05:08:26.017Z,75.50
2022-10-01T05:13:31.725Z,75.85
2022-10-01T05:18:33.170Z,76.02
2022-10-01T05:23:34.615Z,76.35
2022-10-01T05:28:36.215Z,76.47
2022-10-01T05:33:37.929Z,76.43
2022-10-01T05:38:39.432Z,76.77
2022-10-01T05:43:40.793Z,76.44
2022-10-01T05:48:42.175Z,76.42
2022-10-01T05:53:47.070Z,76.52
2022-10-01T05:58:50.978Z,77.02
2022-10-01T06:03:52.998Z,76.80
2022-10-01T06:08:54.371Z,77.23
2022-10-01T06:13:55.988Z,77.29
2022-10-01T06:18:57.980Z,77.82
2022-10-01T06:23:59.435Z,77.75
2022-10-01T06:29:01.303Z,78.07
2022-10-01T06:34:02.785Z,78.41
2022-10-01T06:39:04.310Z,77.90
2022-10-01T06:44:05.674Z,78.11
2022-10-01T06:49:07.150Z,78.06
2022-10-01T06:54:08.968Z,78.27
2022-10-01T06:59:10.328Z,78.65
2022-10-01T07:04:13.075Z,78.96
2022-10-01T07:09:14.468Z,78.79
2022-10-01T07:14:15.832Z,79.25
2022-10-01T07:19:17.168Z,78.96
2022-10-01T07:24:18.510Z,79.05
2022-10-01T07:29:19.882Z,79.15
2022-10-01T07:34:22.197Z,79.39
2022-10-01T07:39:24.164Z,79.43
2022-10-01T07:44:27.739Z,79.26
2022-10-01T07:49:29.200Z,79.58
2022-10-01T07:54:30.562Z,79.02
2022-10-01T07:59:33.180Z,79.06
2022-10-01T08:04:52.985Z,79.25
2022-10-01T08:09:54.367Z,79.46
2022-10-01T08:14:55.953Z,79.75
2022-10-01T08:19:57.357Z,79.75
2022-10-01T08:24:58.751Z,79.84
2022-10-01T08:30:00.178Z,79.85
2022-10-01T08:35:01.598Z,79.90
2022-10-01T08:40:03.565Z,79.93
2022-10-01T08:45:12.535Z,79.99
2022-10-01T08:50:35.294Z,79.83
2022-10-01T08:55:37.569Z,80.07
2022-10-01T09:00:43.933Z,80.02
2022-10-01T09:05:59.072Z,80.07
2022-10-01T09:11:06.986Z,80.19
2022-10-01T09:16:27.127Z,80.60
2022-10-01T09:21:48.073Z,80.25
2022-10-01T09:26:49.490Z,80.41
2022-10-01T09:31:53.352Z,80.38
2022-10-01T09:37:05.535Z,80.34
2022-10-01T09:42:07.359Z,80.47
2022-10-01T09:47:17.529Z,80.09
2022-10-01T09:52:27.065Z,80.16
2022-10-01T09:57:33.679Z,79.94
2022-10-01T10:02:48.943Z,80.39
2022-10-01T10:07:58.708Z,80.31
2022-10-01T10:13:17.911Z,79.87
2022-10-01T10:18:28.442Z,80.52
2022-10-01T10:23:29.911Z,80.80
2022-10-01T10:28:44.297Z,79.87
2022-10-01T10:33:51.121Z,80.41
2022-10-01T10:38:53.585Z,80.40
2022-10-01T10:44:07.294Z,80.53
2022-10-01T10:49:23.389Z,80.18
2022-10-01T10:54:37.516Z,79.97
2022-10-01T10:59:39.024Z,80.26
2022-10-01T11:04:44.170Z,79.74
2022-10-01T11:09:57.790Z,79.88
2022-10-01T11:15:17.127Z,79.95
2022-10-01T11:20:38.611Z,80.08
2022-10-01T11:26:14.014Z,80.12
2022-10-01T11:31:22.612Z,80.15
2022-10-01T11:37:01.681Z,79.75
2022-10-01T11:42:10.203Z,80.08
2022-10-01T11:47:19.362Z,80.04
2022-10-01T11:52:33.904Z,79.90
2022-10-01T11:57:54.295Z,79.90
2022-10-01T12:03:02.305Z,79.36
2022-10-01T12:08:12.104Z,79.69
2022-10-01T12:13:25.500Z,79.94
2022-10-01T12:18:51.791Z,79.65
2022-10-01T12:24:15.532Z,79.95
2022-10-01T12:29:32.650Z,79.62
2022-10-01T12:34:44.244Z,79.43
2022-10-01T12:39:58.074Z,79.23
2022-10-01T12:45:06.148Z,79.04
2022-10-01T12:50:36.127Z,78.79
2022-10-01T12:55:46.483Z,77.70
2022-10-01T13:01:00.541Z,77.42
2022-10-01T13:06:23.395Z,76.75
2022-10-01T13:11:58.307Z,76.34
2022-10-01T13:17:06.531Z,75.97
2022-10-01T13:22:18.781Z,75.33
2022-10-01T13:27:40.405Z,75.63
2022-10-01T13:32:58.395Z,75.45
2022-10-01T13:38:01.128Z,75.48
2022-10-01T13:43:24.031Z,75.46
2022-10-01T13:48:29.622Z,75.40
2022-10-01T13:53:36.088Z,74.99
2022-10-01T13:58:41.984Z,74.63
2022-10-01T14:03:58.112Z,74.30
2022-10-01T14:09:23.878Z,73.94
2022-10-01T14:14:52.558Z,73.56
2022-10-01T14:19:54.447Z,73.56
2022-10-01T14:25:10.125Z,72.74
2022-10-01T14:30:24.301Z,72.37
2022-10-01T14:35:35.164Z,71.51
2022-10-01T14:40:39.886Z,71.53
2022-10-01T14:45:56.271Z,70.97
2022-10-01T14:51:01.281Z,71.44
2022-10-01T14:56:08.324Z,70.89
2022-10-01T15:01:17.120Z,72.12
2022-10-01T15:06:24.043Z,70.74
2022-10-01T15:11:30.892Z,70.25
2022-10-01T15:16:33.650Z,69.94
2022-10-01T15:21:45.224Z,69.47
2022-10-01T15:26:48.642Z,69.78
2022-10-01T15:31:53.181Z,69.41
2022-10-01T15:36:55.383Z,69.39
2022-10-01T15:41:59.117Z,69.16
2022-10-01T15:47:15.098Z,69.18
2022-10-01T15:52:35.104Z,69.07
2022-10-01T15:57:38.217Z,68.93
2022-10-01T16:02:39.816Z,68.83
2022-10-01T16:07:42.150Z,68.83
2022-10-01T16:12:43.691Z,69.04
2022-10-01T16:18:02.428Z,68.84
2022-10-01T16:23:34.015Z,69.22
2022-10-01T16:28:35.856Z,69.28
2022-10-01T16:33:37.469Z,69.28
2022-10-01T16:38:38.898Z,69.28
2022-10-01T16:43:40.340Z,69.56
2022-10-01T16:48:41.764Z,69.86
2022-10-01T16:53:43.516Z,70.04
2022-10-01T16:58:45.664Z,70.51
2022-10-01T17:03:47.307Z,70.70
2022-10-01T17:08:48.703Z,70.84
2022-10-01T17:13:50.145Z,71.11
2022-10-01T17:18:51.630Z,71.53
2022-10-01T17:23:53.663Z,71.14
2022-10-01T17:28:55.130Z,71.32
2022-10-01T17:33:57.043Z,71.75
2022-10-01T17:38:58.872Z,72.01
2022-10-01T17:44:00.501Z,72.04
2022-10-01T17:49:02.077Z,71.95
2022-10-01T17:54:04.564Z,72.12
2022-10-01T17:59:05.927Z,71.97
2022-10-01T18:04:07.269Z,72.28
2022-10-01T18:09:08.637Z,72.39
2022-10-01T18:14:10.079Z,72.12
2022-10-01T18:24:34.491Z,72.18
2022-10-01T18:29:35.879Z,72.02
2022-10-01T18:35:14.085Z,72.00
2022-10-01T18:40:42.389Z,71.96
2022-10-01T18:46:05.523Z,72.08
2022-10-01T18:51:27.503Z,71.86
2022-10-01T18:56:35.647Z,72.10
2022-10-01T19:02:05.597Z,71.79
2022-10-01T19:07:46.310Z,71.93
2022-10-01T19:13:12.062Z,71.72
2022-10-01T19:18:32.539Z,72.12
2022-10-01T19:24:03.994Z,71.99
2022-10-01T19:29:31.064Z,72.21
2022-10-01T19:34:41.339Z,72.44
2022-10-01T19:39:46.106Z,72.48
2022-10-01T19:45:00.575Z,72.33
2022-10-01T19:50:17.091Z,72.28
2022-10-01T19:55:22.769Z,72.22
2022-10-01T20:00:24.323Z,72.19
2022-10-01T20:05:37.172Z,72.02
2022-10-01T20:10:47.721Z,72.07
2022-10-01T20:16:12.498Z,71.80
2022-10-01T20:21:26.626Z,71.95
2022-10-01T20:26:57.021Z,71.92
2022-10-01T20:32:13.263Z,71.82
2022-10-01T20:37:38.034Z,72.07
2022-10-01T20:42:46.585Z,72.19
2022-10-01T20:47:54.549Z,72.17
2022-10-01T20:53:04.741Z,72.47
2022-10-01T20:58:29.093Z,72.94
2022-10-01T21:03:34.580Z,72.68
2022-10-01T21:08:42.333Z,73.04
2022-10-01T21:13:51.930Z,72.96
2022-10-01T21:19:30.305Z,73.22
2022-10-01T21:24:50.246Z,73.35
2022-10-01T21:30:13.814Z,73.36
2022-10-01T21:35:47.892Z,73.23
2022-10-01T21:41:15.872Z,73.13
2022-10-01T21:46:30.490Z,73.27
2022-10-01T21:51:55.274Z,73.41
2022-10-01T21:57:31.221Z,73.58
2022-10-01T22:02:50.319Z,73.87
2022-10-01T22:08:07.100Z,73.99
2022-10-01T22:13:19.789Z,73.91
2022-10-01T22:18:45.302Z,74.41
2022-10-01T22:23:53.191Z,74.22
2022-10-01T22:28:56.139Z,74.71
2022-10-01T22:34:03.043Z,74.24
2022-10-01T22:39:19.145Z,74.53
2022-10-01T22:44:22.666Z,74.29
2022-10-01T22:50:18.607Z,74.73
2022-10-01T22:55:47.213Z,74.46
2022-10-01T23:01:01.610Z,74.75
2022-10-01T23:06:19.475Z,75.06
2022-10-01T23:11:51.345Z,75.03
2022-10-01T23:17:18.711Z,75.25
2022-10-01T23:23:16.489Z,75.09
2022-10-01T23:28:49.595Z,74.94
2022-10-01T23:34:04.422Z,74.17
2022-10-01T23:39:33.918Z,74.04
2022-10-01T23:44:51.767Z,73.72
2022-10-01T23:49:55.233Z,73.59
2022-10-01T23:55:30.771Z,73.44
